Fayette, UT (84630)

11:15 PM MDT on August 29, 2014 (GMT -0600)
Carbon County | Change Station
CLOSE
Current Station
Airport
Location: Price,
Elevation: 5955 ft
Nearby Weather Stations

Elev 5955 ft 39.61 °N, 110.75 °W | Updated 22 minutes ago

Scattered Clouds
Scattered Clouds
66 °F
Feels Like 66 °F
N
0
Wind Variable Wind from North

Today
High -- | Low -- °F
--% Chance of Precip.
Yesterday
High -- | Low -- °F
Precip. -- in
6:53 AM 8:02 PM
Waxing Crescent, 19% visible
Pressure 29.94 in
Visibility 10.0 miles
Clouds Scattered Clouds 12000 ft
Dew Point 41 °F
Humidity 40%
Rainfall 0.00 in
Snow Depth Not available.
UV 0 out of 12
Pollen 8.90 out of 12
Air Quality Not available.
Flu Activity Not available.
METAR KPUC 300453Z AUTO 00000KT 10SM SCT120 19/05 A3016 RMK AO2 SLP138 T01890050

More Conditions Fewer Conditions

Pressure 29.94 in
Visibility 10.0 miles
Clouds Scattered Clouds 12000 ft
Dew Point 41 °F
Humidity 40%
Rainfall 0.00 in
Snow Depth Not available.
UV 0 out of 12
Pollen 8.90 out of 12
Air Quality Not available.
Flu Activity Not available.
METAR KPUC 300453Z AUTO 00000KT 10SM SCT120 19/05 A3016 RMK AO2 SLP138 T01890050

More Conditions Fewer Conditions

10-Day Weather Forecast

Almanac

Astronomy

Aug. 29, 2014 Rise Set
Actual Time 6:53 AM MDT 8:02 PM MDT
Civil Twilight 6:25 AM MDT 8:30 PM MDT
Nautical Twilight 5:52 AM MDT 9:03 PM MDT
Astronomical Twilight 5:18 AM MDT 9:37 PM MDT
Moon 10:44 AM MDT (8/29) 10:04 PM MDT (8/29)
Length of Visible Light 14h 04m
Length of Day
13h 09m
Tomorrow will be 2m 25s shorter.
Waxing Crescent, 19% of the Moon is Illuminated
Aug 30
Waxing Crescent
Sep 2
First Quarter
Sep 8
Full
Sep 15
Last Quarter
Sep 24
New

Yesterday's Extremes

State Highs State Lows

Community

WunderPhotos

Upload Photos

1,748,463 photos uploaded!

Nearby

Snow Depth

Station Depth Elevation
Seeley Creek 0 in 10000 ft
Gooseberry R.S. 0 in 7920 ft
Black Flat-U.M. Creek 0 in 9400 ft
Box Creek 0 in 9800 ft
Kimberly Mine 0 in 9300 ft

Earthquake Activity

City Distance Mag. Time & Date
No recent earthquake activity has been reported nearby.
Minimum magnitude displayed is 2.5.

Coastal Water Temperatures

Place Temperature
No Stations Reporting

Nearby Weather Stations